createdAt,value
2022-12-11T00:11:54.672Z,1.1
2022-12-11T00:25:58.917Z,1.1
2022-12-11T00:40:06.221Z,1.1
2022-12-11T00:54:12.888Z,1.1
2022-12-11T01:08:19.240Z,1.1
2022-12-11T01:22:25.922Z,1.1
2022-12-11T01:36:36.067Z,1.1
2022-12-11T01:50:42.178Z,1.1
2022-12-11T02:04:50.475Z,1.2
2022-12-11T02:18:58.708Z,1.2
2022-12-11T02:33:05.873Z,1.2
2022-12-11T02:47:11.420Z,1.1
2022-12-11T03:01:15.960Z,1.1
2022-12-11T03:15:20.153Z,1
2022-12-11T03:29:24.922Z,1
2022-12-11T03:43:27.314Z,1
2022-12-11T03:57:34.974Z,1
2022-12-11T04:11:40.740Z,1
2022-12-11T04:25:45.208Z,0.9
2022-12-11T05:50:12.465Z,1
2022-12-11T06:18:58.156Z,0.9
2022-12-11T10:17:27.915Z,2.4
2022-12-11T10:31:27.323Z,2.3
2022-12-11T10:45:38.381Z,2.4
2022-12-11T10:59:42.958Z,2.6
2022-12-11T11:13:50.660Z,2.6
2022-12-11T11:27:59.706Z,2.8
2022-12-11T11:42:12.504Z,5.5
2022-12-11T11:56:23.269Z,6.4
2022-12-11T12:10:20.204Z,3.4
2022-12-11T12:24:23.886Z,3.1
2022-12-11T12:38:28.658Z,2.9
2022-12-11T12:52:34.563Z,3
2022-12-11T13:06:44.900Z,2.8
2022-12-11T13:20:49.074Z,2.5
2022-12-11T13:34:54.378Z,2.3
2022-12-11T13:49:01.305Z,2.8
2022-12-11T14:03:11.994Z,3.5
2022-12-11T14:17:21.603Z,3
2022-12-11T14:31:26.970Z,2.9
2022-12-11T14:45:31.979Z,2.9
2022-12-11T14:59:37.026Z,2.5
2022-12-11T15:13:42.367Z,2.1
2022-12-11T15:27:47.078Z,1.9
2022-12-11T15:41:56.682Z,1.7
2022-12-11T15:56:02.901Z,1.5
2022-12-11T16:10:07.450Z,1.3
2022-12-11T16:24:17.364Z,1.3
2022-12-11T16:38:27.024Z,1.2
2022-12-11T16:52:32.096Z,1.3
2022-12-11T17:06:35.518Z,0.9
2022-12-11T17:20:39.182Z,0.3
2022-12-11T17:34:46.139Z,0.2
2022-12-11T17:48:54.388Z,-0.2
2022-12-11T18:03:01.758Z,-0.6
2022-12-11T18:17:11.801Z,-0.9
2022-12-11T18:31:14.454Z,-1.2
2022-12-11T18:45:24.348Z,-1.5
2022-12-11T18:59:32.920Z,-1.4
2022-12-11T19:13:37.809Z,-1.5
2022-12-11T19:27:43.431Z,-1.6
2022-12-11T19:41:49.113Z,-1.8
2022-12-11T19:55:58.376Z,-1.9
2022-12-11T20:10:08.785Z,-2
2022-12-11T20:24:15.140Z,-2.2
2022-12-11T20:38:19.523Z,-2.2
2022-12-11T20:52:24.325Z,-1.9
2022-12-11T21:06:43.714Z,-1.8
2022-12-11T21:20:53.987Z,-1.7
2022-12-11T21:34:59.650Z,-1.5
2022-12-11T21:49:12.953Z,-1.5
2022-12-11T22:03:15.511Z,-1.5
2022-12-11T22:17:21.561Z,-1.5
2022-12-11T22:31:26.430Z,-1.5
2022-12-11T22:45:32.351Z,-1.4
2022-12-11T22:59:38.499Z,-1.3
2022-12-11T23:13:47.999Z,-1.3
2022-12-11T23:27:55.522Z,-1.4
2022-12-11T23:41:58.943Z,-1.5
2022-12-11T23:56:04.337Z,-1.6
